createdAt,value
2023-02-26T00:01:32.518Z,94008.47
2023-02-26T00:04:03.338Z,94000.13
2023-02-26T00:06:33.286Z,94001.97
2023-02-26T00:09:01.087Z,93993.56
2023-02-26T00:11:29.349Z,94004.50
2023-02-26T00:13:57.397Z,94008.97
2023-02-26T00:16:29.214Z,94007.31
2023-02-26T00:18:57.290Z,94013.06
2023-02-26T00:21:26.954Z,94011.88
2023-02-26T00:23:54.798Z,94015.78
2023-02-26T00:26:24.459Z,94018.22
2023-02-26T00:28:52.648Z,94023.31
2023-02-26T00:31:24.662Z,94015.34
2023-02-26T00:33:53.089Z,94013.91
2023-02-26T00:36:23.908Z,94017.44
2023-02-26T00:39:05.204Z,94009.00
2023-02-26T00:41:33.465Z,94020.78
2023-02-26T00:44:01.472Z,94023.25
2023-02-26T00:46:37.771Z,94035.69
2023-02-26T00:49:15.534Z,94033.59
2023-02-26T00:51:48.202Z,94036.69
2023-02-26T00:54:19.465Z,94040.28
2023-02-26T00:56:47.116Z,94043.44
2023-02-26T00:59:14.904Z,94046.34
2023-02-26T01:01:42.756Z,94044.81
2023-02-26T01:04:12.017Z,94037.66
2023-02-26T01:06:43.289Z,94045.78
2023-02-26T01:09:15.814Z,94044.69
2023-02-26T01:11:45.517Z,94041.66
2023-02-26T01:14:41.784Z,94040.66
2023-02-26T01:17:12.536Z,94047.59
2023-02-26T01:19:43.187Z,94044.13
2023-02-26T01:22:20.422Z,94040.91
2023-02-26T01:24:48.705Z,94053.09
2023-02-26T01:27:18.111Z,94044.38
2023-02-26T01:29:46.194Z,94052.50
2023-02-26T01:32:17.480Z,94060.13
2023-02-26T01:34:50.005Z,94061.47
2023-02-26T01:37:22.930Z,94061.53
2023-02-26T01:40:01.883Z,94058.88
2023-02-26T01:42:32.996Z,94055.34
2023-02-26T01:45:02.632Z,94059.22
2023-02-26T01:47:34.788Z,94063.59
2023-02-26T01:50:11.032Z,94062.34
2023-02-26T01:53:11.247Z,94058.81
2023-02-26T01:55:38.928Z,94057.41
2023-02-26T01:58:07.928Z,94061.22
2023-02-26T02:00:35.542Z,94064.56
2023-02-26T02:03:03.351Z,94056.31
2023-02-26T02:05:34.486Z,94061.72
2023-02-26T02:08:02.343Z,94062.84
2023-02-26T02:10:30.482Z,94063.97
2023-02-26T02:13:05.135Z,94062.84
2023-02-26T02:15:39.833Z,94062.94
2023-02-26T02:18:13.275Z,94062.25
2023-02-26T02:21:01.627Z,94065.63
2023-02-26T02:23:33.470Z,94066.03
2023-02-26T02:26:39.671Z,94072.91
2023-02-26T02:29:37.421Z,94072.19
2023-02-26T02:32:08.285Z,94074.22
2023-02-26T02:34:38.044Z,94068.50
2023-02-26T02:37:08.337Z,94077.53
2023-02-26T02:39:40.026Z,94085.34
2023-02-26T02:42:10.146Z,94086.25
2023-02-26T02:44:41.568Z,94088.56
2023-02-26T02:47:11.692Z,94085.25
2023-02-26T02:49:44.927Z,94089.63
2023-02-26T02:52:16.752Z,94090.13
2023-02-26T02:54:49.302Z,94088.47
2023-02-26T02:57:21.411Z,94097.53
2023-02-26T02:59:51.264Z,94095.53
2023-02-26T03:02:23.925Z,94095.81
2023-02-26T03:04:51.591Z,94109.03
2023-02-26T03:07:19.330Z,94116.75
2023-02-26T03:09:47.491Z,94116.19
2023-02-26T03:12:15.316Z,94111.59
2023-02-26T03:14:43.935Z,94115.34
2023-02-26T03:17:23.534Z,94118.66
2023-02-26T03:20:01.376Z,94120.06
2023-02-26T03:22:35.530Z,94124.75
2023-02-26T03:25:08.688Z,94126.47
2023-02-26T03:27:41.585Z,94128.22
2023-02-26T03:30:15.990Z,94128.13
2023-02-26T03:32:51.875Z,94131.72
2023-02-26T03:35:23.553Z,94137.31
2023-02-26T03:37:53.329Z,94132.38
2023-02-26T03:40:25.938Z,94137.69
2023-02-26T03:42:56.638Z,94137.69
2023-02-26T03:45:26.598Z,94135.75
2023-02-26T03:47:56.108Z,94145.09
2023-02-26T03:50:28.689Z,94149.59
2023-02-26T03:52:56.371Z,94154.91
2023-02-26T03:55:28.556Z,94148.13
2023-02-26T03:57:56.427Z,94151.88
2023-02-26T04:00:24.258Z,94162.72
2023-02-26T04:02:59.414Z,94161.44
2023-02-26T04:05:28.666Z,94162.78
2023-02-26T04:07:56.446Z,94167.41
2023-02-26T04:10:35.413Z,94164.00
2023-02-26T04:13:03.932Z,94162.78
2023-02-26T04:15:31.586Z,94162.50
2023-02-26T04:18:00.543Z,94169.78
2023-02-26T04:20:28.141Z,94167.94
2023-02-26T04:22:55.760Z,94168.19
2023-02-26T04:25:23.432Z,94170.84
2023-02-26T04:27:51.146Z,94164.69
2023-02-26T04:30:19.089Z,94170.47
2023-02-26T04:32:46.704Z,94179.84
2023-02-26T04:35:16.100Z,94173.09
2023-02-26T04:37:43.770Z,94179.16
2023-02-26T04:40:12.663Z,94181.19
2023-02-26T04:42:40.343Z,94185.66
2023-02-26T04:45:08.473Z,94191.78
2023-02-26T04:47:36.153Z,94194.56
2023-02-26T04:50:04.473Z,94192.97
2023-02-26T04:52:33.497Z,94192.63
2023-02-26T04:55:01.106Z,94187.66
2023-02-26T04:57:28.755Z,94195.69
2023-02-26T04:59:56.343Z,94197.03
2023-02-26T05:02:23.978Z,94194.38
2023-02-26T05:04:51.565Z,94197.22
2023-02-26T05:07:19.183Z,94195.00
2023-02-26T05:09:48.158Z,94198.94
2023-02-26T05:12:16.109Z,94193.09
2023-02-26T05:14:43.706Z,94202.75
2023-02-26T05:17:11.302Z,94196.50
2023-02-26T05:19:38.898Z,94187.53
2023-02-26T05:22:06.515Z,94195.00
2023-02-26T05:24:35.140Z,94192.97
2023-02-26T05:27:04.177Z,94206.44
2023-02-26T05:29:32.040Z,94203.09
2023-02-26T05:31:59.649Z,94214.06
2023-02-26T05:34:27.279Z,94211.63
2023-02-26T05:36:54.863Z,94214.81
2023-02-26T05:39:22.525Z,94225.66
2023-02-26T05:41:51.849Z,94216.69
2023-02-26T05:44:20.773Z,94220.88
2023-02-26T05:46:48.444Z,94220.25
2023-02-26T05:49:16.103Z,94221.28
2023-02-26T05:51:43.743Z,94229.47
2023-02-26T05:54:11.620Z,94229.47
2023-02-26T05:56:39.211Z,94227.66
2023-02-26T05:59:06.814Z,94231.47
2023-02-26T06:01:37.230Z,94224.22
2023-02-26T06:04:05.260Z,94237.31
2023-02-26T06:06:33.006Z,94249.00
2023-02-26T06:09:01.279Z,94246.81
2023-02-26T06:11:29.021Z,94251.97
2023-02-26T06:13:56.944Z,94252.94
2023-02-26T06:16:25.464Z,94253.94
2023-02-26T06:18:54.687Z,94245.31
2023-02-26T06:21:22.299Z,94248.31
2023-02-26T06:23:49.883Z,94244.38
2023-02-26T06:26:17.469Z,94245.72
2023-02-26T06:28:45.092Z,94252.50
2023-02-26T06:31:12.818Z,94248.69
2023-02-26T06:33:40.426Z,94274.53
2023-02-26T06:36:09.668Z,94273.53
2023-02-26T06:38:37.294Z,94294.75
2023-02-26T06:41:05.212Z,94302.88
2023-02-26T06:43:32.909Z,94314.13
2023-02-26T06:46:01.064Z,94320.41
2023-02-26T06:48:29.042Z,94331.19
2023-02-26T06:50:56.654Z,94340.34
2023-02-26T06:53:25.652Z,94339.81
2023-02-26T06:55:54.135Z,94347.91
2023-02-26T06:58:22.235Z,94349.41
2023-02-26T07:00:49.876Z,94349.72
2023-02-26T07:03:18.653Z,94353.38
2023-02-26T07:05:46.269Z,94349.41
2023-02-26T07:08:14.476Z,94350.34
2023-02-26T07:10:43.755Z,94365.13
2023-02-26T07:13:11.348Z,94357.97
2023-02-26T07:15:38.980Z,94366.63
2023-02-26T07:18:06.755Z,94370.38
2023-02-26T07:20:34.527Z,94365.38
2023-02-26T07:23:02.842Z,94368.22
2023-02-26T07:25:30.575Z,94363.41
2023-02-26T07:28:00.886Z,94362.94
2023-02-26T07:30:28.757Z,94367.41
2023-02-26T07:32:56.440Z,94376.03
2023-02-26T07:35:24.043Z,94379.97
2023-02-26T07:37:51.993Z,94379.44
2023-02-26T07:40:19.877Z,94394.50
2023-02-26T07:42:47.451Z,94388.13
2023-02-26T07:45:18.489Z,94388.63
2023-02-26T07:47:46.046Z,94386.78
2023-02-26T07:50:13.709Z,94384.28
2023-02-26T07:52:41.744Z,94382.13
2023-02-26T07:55:10.571Z,94392.97
2023-02-26T07:57:38.779Z,94387.94
2023-02-26T08:00:09.802Z,94383.56
2023-02-26T08:02:38.875Z,94382.66
2023-02-26T08:05:06.989Z,94389.75
2023-02-26T08:07:34.574Z,94392.75
2023-02-26T08:10:02.208Z,94390.91
2023-02-26T08:12:30.108Z,94394.00
2023-02-26T08:14:57.694Z,94402.66
2023-02-26T08:17:25.284Z,94406.66
2023-02-26T08:19:54.653Z,94402.88
2023-02-26T08:22:23.692Z,94406.50
2023-02-26T08:24:51.366Z,94415.56
2023-02-26T08:27:18.955Z,94405.69
2023-02-26T08:29:47.197Z,94411.31
2023-02-26T08:32:15.943Z,94421.75
2023-02-26T08:34:43.637Z,94427.19
2023-02-26T08:37:12.653Z,94424.34
2023-02-26T08:39:40.481Z,94429.34
2023-02-26T08:42:09.514Z,94428.84
2023-02-26T08:44:37.126Z,94438.69
2023-02-26T08:47:04.814Z,94437.16
2023-02-26T08:49:32.422Z,94439.03
2023-02-26T08:52:00.014Z,94438.69
2023-02-26T08:54:28.966Z,94443.13
2023-02-26T08:56:57.747Z,94451.41
2023-02-26T08:59:25.602Z,94454.13
2023-02-26T09:01:53.583Z,94449.28
2023-02-26T09:04:21.376Z,94459.22
2023-02-26T09:06:48.952Z,94463.69
2023-02-26T09:09:16.536Z,94471.03
2023-02-26T09:11:45.481Z,94476.81
2023-02-26T09:14:13.058Z,94480.44
2023-02-26T09:16:40.721Z,94485.41
2023-02-26T09:19:08.422Z,94483.22
2023-02-26T09:21:36.611Z,94489.50
2023-02-26T09:24:04.446Z,94490.34
2023-02-26T09:26:32.181Z,94489.25
2023-02-26T09:29:01.153Z,94487.06
2023-02-26T09:31:29.213Z,94486.53
2023-02-26T09:33:56.861Z,94494.47
2023-02-26T09:36:24.788Z,94490.63
2023-02-26T09:38:52.521Z,94501.59
2023-02-26T09:41:23.505Z,94497.53
2023-02-26T09:44:03.572Z,94492.69
2023-02-26T09:46:38.442Z,94491.38
2023-02-26T09:49:15.936Z,94498.19
2023-02-26T09:51:43.647Z,94498.13
2023-02-26T09:54:16.570Z,94496.97
2023-02-26T09:56:44.882Z,94500.50
2023-02-26T09:59:13.932Z,94502.00
2023-02-26T10:01:48.623Z,94510.28
2023-02-26T10:04:26.485Z,94500.88
2023-02-26T10:07:04.181Z,94508.16
2023-02-26T10:09:42.712Z,94507.31
2023-02-26T10:12:13.641Z,94510.88
2023-02-26T10:14:45.925Z,94507.88
2023-02-26T10:17:19.341Z,94509.31
2023-02-26T10:19:50.177Z,94506.13
2023-02-26T10:22:21.840Z,94502.81
2023-02-26T10:24:51.961Z,94503.81
2023-02-26T10:27:23.344Z,94499.88
2023-02-26T10:29:59.073Z,94504.53
2023-02-26T10:32:31.669Z,94498.22
2023-02-26T10:35:02.732Z,94496.44
2023-02-26T10:37:40.156Z,94496.84
2023-02-26T10:40:14.399Z,94488.94
2023-02-26T10:42:44.704Z,94486.16
2023-02-26T10:45:25.554Z,94483.09
2023-02-26T10:48:01.601Z,94478.44
2023-02-26T10:50:30.612Z,94476.41
2023-02-26T10:52:58.884Z,94465.91
2023-02-26T10:55:31.818Z,94469.41
2023-02-26T10:58:05.392Z,94472.88
2023-02-26T11:00:36.218Z,94469.94
2023-02-26T11:03:05.603Z,94469.41
2023-02-26T11:05:34.468Z,94466.88
2023-02-26T11:08:04.407Z,94460.28
2023-02-26T11:10:41.838Z,94459.25
2023-02-26T11:13:10.337Z,94468.13
2023-02-26T11:15:39.356Z,94472.78
2023-02-26T11:18:12.374Z,94490.19
2023-02-26T11:20:43.367Z,94495.81
2023-02-26T11:23:14.274Z,94502.56
2023-02-26T11:25:42.061Z,94502.47
2023-02-26T11:28:21.435Z,94505.31
2023-02-26T11:30:54.165Z,94504.38
2023-02-26T11:33:25.348Z,94509.91
2023-02-26T11:35:53.610Z,94515.81
2023-02-26T11:38:23.921Z,94509.09
2023-02-26T11:40:55.977Z,94527.59
2023-02-26T11:43:25.470Z,94518.47
2023-02-26T11:45:56.554Z,94514.63
2023-02-26T11:48:26.562Z,94522.44
2023-02-26T11:50:56.568Z,94531.72
2023-02-26T11:53:28.346Z,94523.06
2023-02-26T11:56:01.786Z,94529.72
2023-02-26T11:58:31.574Z,94519.84
2023-02-26T12:01:02.644Z,94522.41
2023-02-26T12:03:34.220Z,94525.63
2023-02-26T12:06:02.901Z,94514.84
2023-02-26T12:08:32.509Z,94525.41
2023-02-26T12:11:10.755Z,94529.34
2023-02-26T12:13:46.874Z,94523.56
2023-02-26T12:16:20.306Z,94536.75
2023-02-26T12:18:59.384Z,94521.88
2023-02-26T12:21:53.450Z,94524.00
2023-02-26T12:24:33.079Z,94518.59
2023-02-26T12:27:06.840Z,94514.50
2023-02-26T12:29:49.766Z,94521.31
2023-02-26T12:32:29.721Z,94511.16
2023-02-26T12:35:16.926Z,94515.00
2023-02-26T12:37:53.015Z,94514.66
2023-02-26T12:40:35.420Z,94511.25
2023-02-26T12:43:07.963Z,94508.63
2023-02-26T12:45:43.968Z,94497.16
2023-02-26T12:48:41.274Z,94510.44
2023-02-26T12:51:16.466Z,94500.78
2023-02-26T12:53:54.421Z,94504.34
2023-02-26T12:56:50.880Z,94493.63
2023-02-26T12:59:32.936Z,94493.34
2023-02-26T13:02:11.513Z,94500.28
2023-02-26T13:05:04.914Z,94499.41
2023-02-26T13:07:49.907Z,94511.63
2023-02-26T13:10:28.080Z,94512.72
2023-02-26T13:13:10.446Z,94521.00
2023-02-26T13:15:53.581Z,94521.75
2023-02-26T13:18:29.254Z,94523.50
2023-02-26T13:21:00.634Z,94508.41
2023-02-26T13:23:32.552Z,94506.03
2023-02-26T13:26:02.336Z,94504.31
2023-02-26T13:28:39.351Z,94510.13
2023-02-26T13:31:09.819Z,94511.22
2023-02-26T13:33:37.992Z,94509.41
2023-02-26T13:36:08.549Z,94506.13
2023-02-26T13:38:42.158Z,94506.34
2023-02-26T13:41:13.752Z,94510.28
2023-02-26T13:43:57.859Z,94510.94
2023-02-26T13:46:40.938Z,94505.97
2023-02-26T13:49:14.682Z,94512.97
2023-02-26T13:51:45.607Z,94515.00
2023-02-26T13:54:35.168Z,94532.28
2023-02-26T13:57:22.178Z,61859.69
2023-02-26T13:59:55.207Z,61859.69
2023-02-26T14:02:51.648Z,61859.69
2023-02-26T14:05:51.193Z,61859.69
2023-02-26T14:08:46.743Z,61859.69
2023-02-26T14:11:45.676Z,61859.69
2023-02-26T14:14:32.326Z,61859.69
2023-02-26T14:17:45.908Z,61859.69
2023-02-26T14:20:25.727Z,61859.69
2023-02-26T14:23:00.655Z,61859.69
2023-02-26T14:25:34.839Z,94533.47
2023-02-26T14:28:41.647Z,94533.94
2023-02-26T14:31:15.868Z,94549.03
2023-02-26T14:33:47.173Z,94544.44
2023-02-26T14:36:21.566Z,94546.38
2023-02-26T14:38:49.836Z,94538.00
2023-02-26T14:41:28.648Z,94534.28
2023-02-26T14:44:01.504Z,94535.31
2023-02-26T14:46:29.913Z,94543.03
2023-02-26T14:48:58.116Z,94545.78
2023-02-26T14:51:34.476Z,94543.28
2023-02-26T14:54:15.545Z,94541.59
2023-02-26T14:56:59.424Z,94549.25
2023-02-26T14:59:46.140Z,94554.28
2023-02-26T15:02:24.579Z,94553.72
2023-02-26T15:05:21.949Z,94536.34
2023-02-26T15:07:59.546Z,94535.69
2023-02-26T15:10:37.689Z,94528.91
2023-02-26T15:13:16.624Z,94539.78
2023-02-26T15:15:53.533Z,94538.13
2023-02-26T15:18:44.830Z,94548.69
2023-02-26T15:21:18.941Z,94571.09
2023-02-26T15:23:49.193Z,94569.66
2023-02-26T15:26:20.894Z,94580.88
2023-02-26T15:28:50.397Z,94588.56
2023-02-26T15:31:20.529Z,94583.06
2023-02-26T15:33:49.402Z,94582.34
2023-02-26T15:36:21.699Z,94582.28
2023-02-26T15:38:51.352Z,94579.53
2023-02-26T15:41:19.296Z,94581.56
2023-02-26T15:43:52.783Z,94586.06
2023-02-26T15:46:21.984Z,94579.72
2023-02-26T15:48:49.792Z,94594.13
2023-02-26T15:51:19.854Z,94599.81
2023-02-26T15:53:49.431Z,94598.78
2023-02-26T15:56:22.027Z,94606.72
2023-02-26T15:58:53.249Z,94602.94
2023-02-26T16:01:22.824Z,94615.75
2023-02-26T16:03:52.315Z,94612.44
2023-02-26T16:06:21.873Z,94623.97
2023-02-26T16:08:49.441Z,94620.72
2023-02-26T16:11:17.905Z,94614.19
2023-02-26T16:13:45.703Z,94627.47
2023-02-26T16:16:19.270Z,94630.22
2023-02-26T16:18:47.184Z,94634.38
2023-02-26T16:21:23.112Z,94633.53
2023-02-26T16:23:54.703Z,94624.88
2023-02-26T16:26:24.396Z,94634.28
2023-02-26T16:28:57.525Z,94633.91
2023-02-26T16:31:27.766Z,94642.31
2023-02-26T16:33:59.551Z,94643.94
2023-02-26T16:36:30.590Z,94654.63
2023-02-26T16:39:01.504Z,94657.31
2023-02-26T16:41:31.418Z,94659.06
2023-02-26T16:44:01.298Z,94659.16
2023-02-26T16:46:42.600Z,94673.50
2023-02-26T16:49:15.989Z,94677.28
2023-02-26T16:51:43.674Z,94682.63
2023-02-26T16:54:17.017Z,94685.94
2023-02-26T16:56:44.766Z,94685.94
2023-02-26T16:59:14.410Z,94689.25
2023-02-26T17:01:51.157Z,94690.28
2023-02-26T17:04:19.620Z,94692.09
2023-02-26T17:06:48.398Z,94697.63
2023-02-26T17:09:34.747Z,94702.59
2023-02-26T17:12:11.722Z,94716.63
2023-02-26T17:14:41.978Z,94737.47
2023-02-26T17:17:11.340Z,94726.03
2023-02-26T17:19:39.346Z,94728.34
2023-02-26T17:22:10.784Z,94730.06
2023-02-26T17:24:40.859Z,94734.09
2023-02-26T17:27:09.242Z,94733.91
2023-02-26T17:29:39.588Z,94730.84
2023-02-26T17:32:09.840Z,94735.34
2023-02-26T17:34:38.884Z,94744.72
2023-02-26T17:37:07.842Z,94751.75
2023-02-26T17:39:35.601Z,94741.09
2023-02-26T17:42:03.212Z,94758.78
2023-02-26T17:44:30.856Z,94754.56
2023-02-26T17:46:58.438Z,94763.56
2023-02-26T17:49:26.082Z,94768.72
2023-02-26T17:51:55.047Z,94775.44
2023-02-26T17:54:22.643Z,94773.75
2023-02-26T17:56:50.513Z,94774.44
2023-02-26T17:59:18.110Z,94784.41
2023-02-26T18:01:45.667Z,94788.41
2023-02-26T18:04:13.425Z,94785.94
2023-02-26T18:06:41.121Z,94791.09
2023-02-26T18:09:12.374Z,94781.91
2023-02-26T18:11:41.855Z,94786.53
2023-02-26T18:14:10.217Z,94799.72
2023-02-26T18:16:40.304Z,94792.06
2023-02-26T18:19:08.561Z,94796.56
2023-02-26T18:21:36.207Z,94787.25
2023-02-26T18:24:03.815Z,94793.47
2023-02-26T18:26:34.101Z,94797.31
2023-02-26T18:29:01.836Z,94800.03
2023-02-26T18:31:34.531Z,94795.16
2023-02-26T18:34:02.876Z,94804.19
2023-02-26T18:36:34.545Z,94802.03
2023-02-26T18:39:03.113Z,94793.03
2023-02-26T18:41:32.633Z,94800.91
2023-02-26T18:44:00.748Z,94804.91
2023-02-26T18:46:29.920Z,94805.59
2023-02-26T18:48:57.558Z,94807.63
2023-02-26T18:51:25.594Z,94808.09
2023-02-26T18:53:54.307Z,94811.28
2023-02-26T18:56:21.904Z,94806.97
2023-02-26T18:58:50.815Z,94806.50
2023-02-26T19:01:18.563Z,94806.66
2023-02-26T19:03:46.188Z,94796.63
2023-02-26T19:06:13.831Z,94805.97
2023-02-26T19:08:41.420Z,94808.28
2023-02-26T19:11:09.109Z,94816.09
2023-02-26T19:13:37.038Z,94814.44
2023-02-26T19:16:06.763Z,94805.06
2023-02-26T19:18:34.560Z,94809.56
2023-02-26T19:21:04.654Z,94810.56
2023-02-26T19:23:32.290Z,94812.25
2023-02-26T19:25:59.932Z,94802.91
2023-02-26T19:28:27.507Z,94803.78
2023-02-26T19:30:55.807Z,94805.75
2023-02-26T19:33:24.961Z,94801.09
2023-02-26T19:35:52.928Z,94806.28
2023-02-26T19:38:20.605Z,94807.59
2023-02-26T19:40:48.641Z,94811.28
2023-02-26T19:43:16.278Z,94808.28
2023-02-26T19:45:43.841Z,94806.13
2023-02-26T19:48:11.476Z,94810.28
2023-02-26T19:50:40.542Z,94812.31
2023-02-26T19:53:08.181Z,94833.00
2023-02-26T19:55:35.906Z,94839.31
2023-02-26T19:58:03.562Z,94843.00
2023-02-26T20:00:31.408Z,94851.50
2023-02-26T20:02:59.188Z,94843.69
2023-02-26T20:05:26.869Z,94854.69
2023-02-26T20:07:56.334Z,94859.03
2023-02-26T20:10:24.426Z,94863.84
2023-02-26T20:12:52.106Z,94864.69
2023-02-26T20:15:19.828Z,94873.84
2023-02-26T20:17:47.499Z,94880.69
2023-02-26T20:20:15.348Z,94884.84
2023-02-26T20:22:43.010Z,94892.69
2023-02-26T20:25:12.126Z,94886.53
2023-02-26T20:27:39.965Z,94889.19
2023-02-26T20:30:09.135Z,94884.03
2023-02-26T20:32:37.106Z,94890.19
2023-02-26T20:35:05.631Z,94887.00
2023-02-26T20:37:33.226Z,94876.34
2023-02-26T20:40:00.859Z,94876.16
2023-02-26T20:42:29.922Z,94890.00
2023-02-26T20:44:57.564Z,94882.34
2023-02-26T20:47:25.246Z,94889.69
2023-02-26T20:49:52.871Z,94892.34
2023-02-26T20:52:20.928Z,94890.03
2023-02-26T20:54:48.524Z,94887.69
2023-02-26T20:57:16.227Z,94896.38
2023-02-26T20:59:45.283Z,94895.88
2023-02-26T21:02:15.412Z,94903.03
2023-02-26T21:04:43.215Z,94898.91
2023-02-26T21:07:17.602Z,94912.06
2023-02-26T21:09:48.037Z,94906.22
2023-02-26T21:12:16.382Z,94910.41
2023-02-26T21:14:45.473Z,94905.22
2023-02-26T21:17:13.096Z,94906.06
2023-02-26T21:19:40.734Z,94897.88
2023-02-26T21:22:08.447Z,94898.38
2023-02-26T21:24:36.027Z,94908.72
2023-02-26T21:27:03.655Z,94914.38
2023-02-26T21:29:31.292Z,94915.38
2023-02-26T21:32:03.474Z,94912.56
2023-02-26T21:34:34.266Z,94914.19
2023-02-26T21:37:02.636Z,94919.69
2023-02-26T21:39:30.678Z,94919.38
2023-02-26T21:42:00.131Z,94914.75
2023-02-26T21:44:28.401Z,94919.41
2023-02-26T21:46:57.339Z,94921.56
2023-02-26T21:49:27.055Z,94917.25
2023-02-26T21:51:54.818Z,94921.41
2023-02-26T21:54:22.839Z,94925.41
2023-02-26T21:56:50.442Z,94931.56
2023-02-26T21:59:18.096Z,94925.09
2023-02-26T22:01:45.799Z,94926.41
2023-02-26T22:04:13.599Z,94939.06
2023-02-26T22:06:42.647Z,94936.56
2023-02-26T22:09:10.269Z,94930.75
2023-02-26T22:11:37.871Z,94934.41
2023-02-26T22:14:05.468Z,94942.06
2023-02-26T22:16:33.201Z,94928.91
2023-02-26T22:19:00.823Z,94932.06
2023-02-26T22:21:28.745Z,94938.06
2023-02-26T22:23:58.026Z,94934.88
2023-02-26T22:26:25.671Z,94934.72
2023-02-26T22:28:53.269Z,94932.38
2023-02-26T22:31:20.894Z,94938.22
2023-02-26T22:33:48.583Z,94932.38
2023-02-26T22:36:16.141Z,94939.41
2023-02-26T22:38:43.781Z,94931.22
2023-02-26T22:41:12.711Z,94940.06
2023-02-26T22:43:40.313Z,94938.22
2023-02-26T22:46:08.079Z,94930.91
2023-02-26T22:48:35.686Z,94930.75
2023-02-26T22:51:03.334Z,94937.88
2023-02-26T22:53:31.894Z,94942.56
2023-02-26T22:55:59.533Z,94944.75
2023-02-26T22:58:28.756Z,94944.75
2023-02-26T23:01:00.373Z,94948.72
2023-02-26T23:03:28.120Z,94939.72
2023-02-26T23:05:55.822Z,94939.72
2023-02-26T23:08:23.513Z,94948.38
2023-02-26T23:10:51.268Z,94955.22
2023-02-26T23:13:18.855Z,94949.72
2023-02-26T23:15:47.950Z,94954.06
2023-02-26T23:18:16.121Z,94953.88
2023-02-26T23:20:43.764Z,94949.56
2023-02-26T23:23:11.395Z,94951.91
2023-02-26T23:25:39.056Z,94948.72
2023-02-26T23:28:06.643Z,94955.41
2023-02-26T23:30:34.351Z,94957.09
2023-02-26T23:33:04.291Z,94950.91
2023-02-26T23:35:31.968Z,94955.06
2023-02-26T23:37:59.639Z,94964.06
2023-02-26T23:40:27.298Z,94956.91
2023-02-26T23:42:54.915Z,94967.38
2023-02-26T23:45:22.505Z,94968.25
2023-02-26T23:47:50.082Z,94971.56
2023-02-26T23:50:20.283Z,94975.06
2023-02-26T23:52:47.853Z,94969.56
2023-02-26T23:55:15.668Z,94960.06
2023-02-26T23:57:44.705Z,94956.06
